sensor_id;sensor_type;location;lat;lon;timestamp;temperature;humidity
13721;DHT22;6932;51.438;5.470;2022-10-16T00:01:10;19.70;92.10
13721;DHT22;6932;51.438;5.470;2022-10-16T00:03:37;19.70;92.10
13721;DHT22;6932;51.438;5.470;2022-10-16T00:06:04;19.70;92.20
13721;DHT22;6932;51.438;5.470;2022-10-16T00:08:31;19.80;92.20
13721;DHT22;6932;51.438;5.470;2022-10-16T00:11:02;19.70;92.20
13721;DHT22;6932;51.438;5.470;2022-10-16T00:13:34;19.70;92.20
13721;DHT22;6932;51.438;5.470;2022-10-16T00:16:01;19.70;92.30
13721;DHT22;6932;51.438;5.470;2022-10-16T00:18:28;19.70;92.30
13721;DHT22;6932;51.438;5.470;2022-10-16T00:20:55;19.70;92.30
13721;DHT22;6932;51.438;5.470;2022-10-16T00:23:26;19.70;92.30
13721;DHT22;6932;51.438;5.470;2022-10-16T00:26:00;19.70;92.30
13721;DHT22;6932;51.438;5.470;2022-10-16T00:28:28;19.70;92.30
13721;DHT22;6932;51.438;5.470;2022-10-16T00:30:54;19.70;92.30
13721;DHT22;6932;51.438;5.470;2022-10-16T00:33:20;19.70;92.30
13721;DHT22;6932;51.438;5.470;2022-10-16T00:35:46;19.70;92.40
13721;DHT22;6932;51.438;5.470;2022-10-16T00:38:12;19.70;92.30
13721;DHT22;6932;51.438;5.470;2022-10-16T00:40:39;19.70;92.40
13721;DHT22;6932;51.438;5.470;2022-10-16T00:46:38;19.70;92.40
13721;DHT22;6932;51.438;5.470;2022-10-16T00:49:11;19.70;92.30
13721;DHT22;6932;51.438;5.470;2022-10-16T00:52:00;19.70;92.60
13721;DHT22;6932;51.438;5.470;2022-10-16T00:54:28;19.70;92.30
13721;DHT22;6932;51.438;5.470;2022-10-16T00:56:59;19.70;92.30
13721;DHT22;6932;51.438;5.470;2022-10-16T00:59:33;19.70;92.30
13721;DHT22;6932;51.438;5.470;2022-10-16T01:02:05;19.70;92.30
13721;DHT22;6932;51.438;5.470;2022-10-16T01:04:39;19.70;92.30
13721;DHT22;6932;51.438;5.470;2022-10-16T01:12:41;19.70;92.40
13721;DHT22;6932;51.438;5.470;2022-10-16T01:15:32;19.70;92.40
13721;DHT22;6932;51.438;5.470;2022-10-16T01:18:11;19.60;92.40
13721;DHT22;6932;51.438;5.470;2022-10-16T01:21:04;19.70;92.40
13721;DHT22;6932;51.438;5.470;2022-10-16T01:23:51;19.60;92.40
13721;DHT22;6932;51.438;5.470;2022-10-16T01:35:24;19.60;92.40
13721;DHT22;6932;51.438;5.470;2022-10-16T01:37:58;19.50;92.40
13721;DHT22;6932;51.438;5.470;2022-10-16T01:40:30;19.60;92.40
13721;DHT22;6932;51.438;5.470;2022-10-16T01:43:11;19.50;92.40
13721;DHT22;6932;51.438;5.470;2022-10-16T01:45:41;19.50;92.40
13721;DHT22;6932;51.438;5.470;2022-10-16T01:48:12;19.50;92.40
13721;DHT22;6932;51.438;5.470;2022-10-16T01:50:44;19.50;92.40
13721;DHT22;6932;51.438;5.470;2022-10-16T01:53:28;19.50;92.40
13721;DHT22;6932;51.438;5.470;2022-10-16T01:55:56;19.50;92.40
13721;DHT22;6932;51.438;5.470;2022-10-16T01:58:25;19.50;92.50
13721;DHT22;6932;51.438;5.470;2022-10-16T02:00:54;19.50;92.50
13721;DHT22;6932;51.438;5.470;2022-10-16T02:03:20;19.50;92.50
13721;DHT22;6932;51.438;5.470;2022-10-16T02:05:57;19.50;92.50
13721;DHT22;6932;51.438;5.470;2022-10-16T02:08:27;19.50;92.50
13721;DHT22;6932;51.438;5.470;2022-10-16T02:10:55;19.50;92.50
13721;DHT22;6932;51.438;5.470;2022-10-16T02:13:26;19.50;92.50
13721;DHT22;6932;51.438;5.470;2022-10-16T02:15:56;19.50;92.50
13721;DHT22;6932;51.438;5.470;2022-10-16T02:18:22;19.50;92.70
13721;DHT22;6932;51.438;5.470;2022-10-16T02:20:53;19.50;92.40
13721;DHT22;6932;51.438;5.470;2022-10-16T02:23:45;19.50;92.40
13721;DHT22;6932;51.438;5.470;2022-10-16T02:26:25;19.50;92.40
13721;DHT22;6932;51.438;5.470;2022-10-16T02:29:00;19.50;92.30
13721;DHT22;6932;51.438;5.470;2022-10-16T02:31:34;19.50;92.30
13721;DHT22;6932;51.438;5.470;2022-10-16T02:34:04;19.50;92.30
13721;DHT22;6932;51.438;5.470;2022-10-16T02:36:33;19.50;92.30
13721;DHT22;6932;51.438;5.470;2022-10-16T02:39:00;19.50;92.30
13721;DHT22;6932;51.438;5.470;2022-10-16T02:41:30;19.50;92.30
13721;DHT22;6932;51.438;5.470;2022-10-16T02:43:55;19.50;92.30
13721;DHT22;6932;51.438;5.470;2022-10-16T02:46:21;19.50;92.30
13721;DHT22;6932;51.438;5.470;2022-10-16T02:48:47;19.50;92.30
13721;DHT22;6932;51.438;5.470;2022-10-16T02:51:13;19.50;92.30
13721;DHT22;6932;51.438;5.470;2022-10-16T02:53:39;19.50;92.30
13721;DHT22;6932;51.438;5.470;2022-10-16T02:56:05;19.50;92.30
13721;DHT22;6932;51.438;5.470;2022-10-16T02:58:30;19.50;92.30
13721;DHT22;6932;51.438;5.470;2022-10-16T03:00:56;19.50;92.30
13721;DHT22;6932;51.438;5.470;2022-10-16T03:03:22;19.50;92.20
13721;DHT22;6932;51.438;5.470;2022-10-16T03:05:47;19.50;92.20
13721;DHT22;6932;51.438;5.470;2022-10-16T03:08:13;19.50;92.20
13721;DHT22;6932;51.438;5.470;2022-10-16T03:10:39;19.40;92.20
13721;DHT22;6932;51.438;5.470;2022-10-16T03:13:05;19.50;92.20
13721;DHT22;6932;51.438;5.470;2022-10-16T03:15:31;19.40;92.20
13721;DHT22;6932;51.438;5.470;2022-10-16T03:17:59;19.50;92.20
13721;DHT22;6932;51.438;5.470;2022-10-16T03:20:26;19.40;92.10
13721;DHT22;6932;51.438;5.470;2022-10-16T03:22:52;19.40;92.10
13721;DHT22;6932;51.438;5.470;2022-10-16T03:25:18;19.40;92.20
13721;DHT22;6932;51.438;5.470;2022-10-16T03:27:43;19.40;92.20
13721;DHT22;6932;51.438;5.470;2022-10-16T03:30:09;19.40;92.20
13721;DHT22;6932;51.438;5.470;2022-10-16T03:32:35;19.40;92.30
13721;DHT22;6932;51.438;5.470;2022-10-16T03:35:01;19.40;92.30
13721;DHT22;6932;51.438;5.470;2022-10-16T03:37:27;19.40;92.30
13721;DHT22;6932;51.438;5.470;2022-10-16T03:39:53;19.40;92.30
13721;DHT22;6932;51.438;5.470;2022-10-16T03:42:18;19.40;92.40
13721;DHT22;6932;51.438;5.470;2022-10-16T03:44:45;19.40;92.40
13721;DHT22;6932;51.438;5.470;2022-10-16T03:47:10;19.40;92.40
13721;DHT22;6932;51.438;5.470;2022-10-16T03:49:36;19.40;92.40
13721;DHT22;6932;51.438;5.470;2022-10-16T03:52:02;19.40;92.40
13721;DHT22;6932;51.438;5.470;2022-10-16T03:54:28;19.40;92.40
13721;DHT22;6932;51.438;5.470;2022-10-16T03:56:53;19.40;92.50
13721;DHT22;6932;51.438;5.470;2022-10-16T03:59:19;19.40;92.50
13721;DHT22;6932;51.438;5.470;2022-10-16T04:01:45;19.40;92.50
13721;DHT22;6932;51.438;5.470;2022-10-16T04:04:10;19.40;92.50
13721;DHT22;6932;51.438;5.470;2022-10-16T04:06:36;19.40;92.50
13721;DHT22;6932;51.438;5.470;2022-10-16T04:09:02;19.40;92.50
13721;DHT22;6932;51.438;5.470;2022-10-16T04:11:27;19.40;92.50
13721;DHT22;6932;51.438;5.470;2022-10-16T04:13:53;19.40;92.50
13721;DHT22;6932;51.438;5.470;2022-10-16T04:16:19;19.40;92.50
13721;DHT22;6932;51.438;5.470;2022-10-16T04:18:45;19.50;92.80
13721;DHT22;6932;51.438;5.470;2022-10-16T04:21:10;19.40;92.50
13721;DHT22;6932;51.438;5.470;2022-10-16T04:23:36;19.40;92.50
13721;DHT22;6932;51.438;5.470;2022-10-16T04:26:02;19.40;92.50
13721;DHT22;6932;51.438;5.470;2022-10-16T04:28:28;19.40;92.60
13721;DHT22;6932;51.438;5.470;2022-10-16T04:30:54;19.40;92.90
13721;DHT22;6932;51.438;5.470;2022-10-16T04:33:20;19.40;92.60
13721;DHT22;6932;51.438;5.470;2022-10-16T04:35:45;19.40;92.60
13721;DHT22;6932;51.438;5.470;2022-10-16T04:38:11;19.40;92.60
13721;DHT22;6932;51.438;5.470;2022-10-16T04:40:37;19.50;92.70
13721;DHT22;6932;51.438;5.470;2022-10-16T04:43:03;19.40;92.70
13721;DHT22;6932;51.438;5.470;2022-10-16T04:45:30;19.50;92.70
13721;DHT22;6932;51.438;5.470;2022-10-16T04:47:59;19.50;92.70
13721;DHT22;6932;51.438;5.470;2022-10-16T04:50:25;19.40;92.70
13721;DHT22;6932;51.438;5.470;2022-10-16T04:52:51;19.50;92.70
13721;DHT22;6932;51.438;5.470;2022-10-16T04:55:17;19.50;92.70
13721;DHT22;6932;51.438;5.470;2022-10-16T04:57:43;19.50;92.70
13721;DHT22;6932;51.438;5.470;2022-10-16T05:00:09;19.50;92.80
13721;DHT22;6932;51.438;5.470;2022-10-16T05:02:35;19.50;92.70
13721;DHT22;6932;51.438;5.470;2022-10-16T05:05:01;19.50;92.70
13721;DHT22;6932;51.438;5.470;2022-10-16T05:07:26;19.50;92.70
13721;DHT22;6932;51.438;5.470;2022-10-16T05:09:52;19.50;92.80
13721;DHT22;6932;51.438;5.470;2022-10-16T05:12:18;19.50;92.80
13721;DHT22;6932;51.438;5.470;2022-10-16T05:14:44;19.50;92.80
13721;DHT22;6932;51.438;5.470;2022-10-16T05:17:09;19.50;92.80
13721;DHT22;6932;51.438;5.470;2022-10-16T05:19:35;19.50;92.80
13721;DHT22;6932;51.438;5.470;2022-10-16T05:22:01;19.50;92.80
13721;DHT22;6932;51.438;5.470;2022-10-16T05:24:27;19.50;92.80
13721;DHT22;6932;51.438;5.470;2022-10-16T05:26:53;19.50;92.80
13721;DHT22;6932;51.438;5.470;2022-10-16T05:29:18;19.50;92.80
13721;DHT22;6932;51.438;5.470;2022-10-16T05:31:45;19.50;92.80
13721;DHT22;6932;51.438;5.470;2022-10-16T05:34:10;19.50;92.80
13721;DHT22;6932;51.438;5.470;2022-10-16T05:36:36;19.50;92.80
13721;DHT22;6932;51.438;5.470;2022-10-16T05:39:02;19.50;92.90
13721;DHT22;6932;51.438;5.470;2022-10-16T05:41:28;19.50;92.90
13721;DHT22;6932;51.438;5.470;2022-10-16T05:43:54;19.50;92.90
13721;DHT22;6932;51.438;5.470;2022-10-16T05:46:20;19.40;92.80
13721;DHT22;6932;51.438;5.470;2022-10-16T05:48:46;19.50;92.90
13721;DHT22;6932;51.438;5.470;2022-10-16T05:51:13;19.40;92.90
13721;DHT22;6932;51.438;5.470;2022-10-16T05:53:40;19.40;92.90
13721;DHT22;6932;51.438;5.470;2022-10-16T05:56:08;19.40;92.90
13721;DHT22;6932;51.438;5.470;2022-10-16T05:58:37;19.40;92.90
13721;DHT22;6932;51.438;5.470;2022-10-16T06:01:09;19.40;92.90
13721;DHT22;6932;51.438;5.470;2022-10-16T06:03:37;19.40;93.00
13721;DHT22;6932;51.438;5.470;2022-10-16T06:08:43;19.40;93.30
13721;DHT22;6932;51.438;5.470;2022-10-16T06:11:13;19.40;93.10
13721;DHT22;6932;51.438;5.470;2022-10-16T06:13:43;19.40;93.10
13721;DHT22;6932;51.438;5.470;2022-10-16T06:16:12;19.40;93.10
13721;DHT22;6932;51.438;5.470;2022-10-16T06:18:38;19.40;93.10
13721;DHT22;6932;51.438;5.470;2022-10-16T06:21:13;19.30;93.10
13721;DHT22;6932;51.438;5.470;2022-10-16T06:23:41;19.30;93.20
13721;DHT22;6932;51.438;5.470;2022-10-16T06:26:09;19.30;93.20
13721;DHT22;6932;51.438;5.470;2022-10-16T06:28:37;19.30;93.20
13721;DHT22;6932;51.438;5.470;2022-10-16T06:31:04;19.30;93.20
13721;DHT22;6932;51.438;5.470;2022-10-16T06:33:31;19.30;93.20
13721;DHT22;6932;51.438;5.470;2022-10-16T06:36:05;19.30;93.30
13721;DHT22;6932;51.438;5.470;2022-10-16T06:38:36;19.30;93.30
13721;DHT22;6932;51.438;5.470;2022-10-16T06:41:04;19.30;93.30
13721;DHT22;6932;51.438;5.470;2022-10-16T06:43:30;19.30;93.30
13721;DHT22;6932;51.438;5.470;2022-10-16T06:45:58;19.30;93.30
13721;DHT22;6932;51.438;5.470;2022-10-16T06:48:26;19.30;93.40
13721;DHT22;6932;51.438;5.470;2022-10-16T06:51:14;19.30;93.40
13721;DHT22;6932;51.438;5.470;2022-10-16T06:53:46;19.30;93.60
13721;DHT22;6932;51.438;5.470;2022-10-16T06:56:22;19.30;93.80
13721;DHT22;6932;51.438;5.470;2022-10-16T06:58:50;19.40;93.90
13721;DHT22;6932;51.438;5.470;2022-10-16T07:01:18;19.40;94.10
13721;DHT22;6932;51.438;5.470;2022-10-16T07:03:46;19.50;94.20
13721;DHT22;6932;51.438;5.470;2022-10-16T07:06:16;19.60;94.30
13721;DHT22;6932;51.438;5.470;2022-10-16T07:08:45;19.70;94.30
13721;DHT22;6932;51.438;5.470;2022-10-16T07:11:14;19.80;94.30
13721;DHT22;6932;51.438;5.470;2022-10-16T07:13:44;19.90;94.20
13721;DHT22;6932;51.438;5.470;2022-10-16T07:16:13;20.00;94.10
13721;DHT22;6932;51.438;5.470;2022-10-16T07:18:40;20.10;93.90
13721;DHT22;6932;51.438;5.470;2022-10-16T07:21:10;20.20;93.80
13721;DHT22;6932;51.438;5.470;2022-10-16T07:23:39;20.40;93.60
13721;DHT22;6932;51.438;5.470;2022-10-16T07:26:06;20.50;93.50
13721;DHT22;6932;51.438;5.470;2022-10-16T07:28:33;20.60;93.30
13721;DHT22;6932;51.438;5.470;2022-10-16T07:31:07;20.80;93.10
13721;DHT22;6932;51.438;5.470;2022-10-16T07:33:37;20.90;92.90
13721;DHT22;6932;51.438;5.470;2022-10-16T07:36:04;21.10;92.90
13721;DHT22;6932;51.438;5.470;2022-10-16T07:38:30;21.20;92.70
13721;DHT22;6932;51.438;5.470;2022-10-16T07:41:00;21.30;92.50
13721;DHT22;6932;51.438;5.470;2022-10-16T07:43:30;21.50;92.20
13721;DHT22;6932;51.438;5.470;2022-10-16T07:45:56;21.60;92.10
13721;DHT22;6932;51.438;5.470;2022-10-16T07:48:22;21.80;91.90
13721;DHT22;6932;51.438;5.470;2022-10-16T07:50:49;21.90;91.70
13721;DHT22;6932;51.438;5.470;2022-10-16T07:53:15;22.00;91.50
13721;DHT22;6932;51.438;5.470;2022-10-16T07:55:41;22.20;91.30
13721;DHT22;6932;51.438;5.470;2022-10-16T07:58:07;22.30;91.10
13721;DHT22;6932;51.438;5.470;2022-10-16T08:00:33;22.50;90.90
13721;DHT22;6932;51.438;5.470;2022-10-16T08:03:00;22.60;90.60
13721;DHT22;6932;51.438;5.470;2022-10-16T08:05:30;22.70;90.30
13721;DHT22;6932;51.438;5.470;2022-10-16T08:07:57;22.90;89.90
13721;DHT22;6932;51.438;5.470;2022-10-16T08:10:25;23.00;90.00
13721;DHT22;6932;51.438;5.470;2022-10-16T08:12:53;23.10;89.00
13721;DHT22;6932;51.438;5.470;2022-10-16T08:15:19;23.10;88.50
13721;DHT22;6932;51.438;5.470;2022-10-16T08:17:59;23.20;88.30
13721;DHT22;6932;51.438;5.470;2022-10-16T08:20:27;23.20;87.90
13721;DHT22;6932;51.438;5.470;2022-10-16T08:22:54;23.30;87.90
13721;DHT22;6932;51.438;5.470;2022-10-16T08:25:21;23.30;87.60
13721;DHT22;6932;51.438;5.470;2022-10-16T08:27:48;23.40;87.20
13721;DHT22;6932;51.438;5.470;2022-10-16T08:30:15;23.50;87.10
13721;DHT22;6932;51.438;5.470;2022-10-16T08:32:43;23.60;86.80
13721;DHT22;6932;51.438;5.470;2022-10-16T08:35:10;23.60;86.50
13721;DHT22;6932;51.438;5.470;2022-10-16T08:37:37;23.70;86.30
13721;DHT22;6932;51.438;5.470;2022-10-16T08:40:05;23.80;85.80
13721;DHT22;6932;51.438;5.470;2022-10-16T08:48:46;24.00;84.80
13721;DHT22;6932;51.438;5.470;2022-10-16T08:51:35;24.10;85.00
13721;DHT22;6932;51.438;5.470;2022-10-16T08:54:21;24.20;84.50
13721;DHT22;6932;51.438;5.470;2022-10-16T08:57:00;24.20;83.90
13721;DHT22;6932;51.438;5.470;2022-10-16T08:59:37;24.30;83.70
13721;DHT22;6932;51.438;5.470;2022-10-16T09:02:24;24.40;83.30
13721;DHT22;6932;51.438;5.470;2022-10-16T09:05:15;24.40;83.00
13721;DHT22;6932;51.438;5.470;2022-10-16T09:08:08;24.60;82.50
13721;DHT22;6932;51.438;5.470;2022-10-16T09:16:44;24.70;82.60
13721;DHT22;6932;51.438;5.470;2022-10-16T09:19:21;24.80;81.20
13721;DHT22;6932;51.438;5.470;2022-10-16T09:22:15;24.90;81.10
13721;DHT22;6932;51.438;5.470;2022-10-16T09:24:42;24.90;80.50
13721;DHT22;6932;51.438;5.470;2022-10-16T09:27:11;25.00;80.50
13721;DHT22;6932;51.438;5.470;2022-10-16T09:29:38;25.10;80.30
13721;DHT22;6932;51.438;5.470;2022-10-16T09:32:14;25.10;79.90
13721;DHT22;6932;51.438;5.470;2022-10-16T09:35:01;25.20;79.70
13721;DHT22;6932;51.438;5.470;2022-10-16T09:37:28;25.30;79.60
13721;DHT22;6932;51.438;5.470;2022-10-16T09:39:54;25.30;78.50
13721;DHT22;6932;51.438;5.470;2022-10-16T09:42:31;25.40;78.40
13721;DHT22;6932;51.438;5.470;2022-10-16T09:44:59;25.40;78.00
13721;DHT22;6932;51.438;5.470;2022-10-16T09:47:27;25.40;78.10
13721;DHT22;6932;51.438;5.470;2022-10-16T09:52:22;25.50;77.50
13721;DHT22;6932;51.438;5.470;2022-10-16T09:55:00;25.50;76.70
13721;DHT22;6932;51.438;5.470;2022-10-16T09:57:34;25.50;76.70
13721;DHT22;6932;51.438;5.470;2022-10-16T10:00:08;25.60;75.90
13721;DHT22;6932;51.438;5.470;2022-10-16T10:02:36;25.50;75.10
13721;DHT22;6932;51.438;5.470;2022-10-16T10:05:26;25.50;74.90
13721;DHT22;6932;51.438;5.470;2022-10-16T10:07:58;25.30;74.80
13721;DHT22;6932;51.438;5.470;2022-10-16T10:10:30;25.30;74.80
13721;DHT22;6932;51.438;5.470;2022-10-16T10:12:58;25.20;74.40
13721;DHT22;6932;51.438;5.470;2022-10-16T10:15:25;25.20;75.10
13721;DHT22;6932;51.438;5.470;2022-10-16T10:17:58;25.10;74.90
13721;DHT22;6932;51.438;5.470;2022-10-16T10:20:35;25.10;75.20
13721;DHT22;6932;51.438;5.470;2022-10-16T10:23:22;25.00;75.30
13721;DHT22;6932;51.438;5.470;2022-10-16T10:26:20;24.90;75.50
13721;DHT22;6932;51.438;5.470;2022-10-16T10:32:08;24.80;75.60
13721;DHT22;6932;51.438;5.470;2022-10-16T10:34:57;24.80;75.60
13721;DHT22;6932;51.438;5.470;2022-10-16T10:37:48;24.70;76.10
13721;DHT22;6932;51.438;5.470;2022-10-16T10:43:38;24.70;76.00
13721;DHT22;6932;51.438;5.470;2022-10-16T10:46:17;24.70;75.50
13721;DHT22;6932;51.438;5.470;2022-10-16T10:48:54;24.70;75.30
13721;DHT22;6932;51.438;5.470;2022-10-16T10:51:40;24.70;75.10
13721;DHT22;6932;51.438;5.470;2022-10-16T10:57:27;24.70;74.40
13721;DHT22;6932;51.438;5.470;2022-10-16T11:02:50;24.80;74.80
13721;DHT22;6932;51.438;5.470;2022-10-16T11:11:03;24.90;75.30
13721;DHT22;6932;51.438;5.470;2022-10-16T11:16:26;25.10;73.90
13721;DHT22;6932;51.438;5.470;2022-10-16T11:19:36;25.10;74.10
13721;DHT22;6932;51.438;5.470;2022-10-16T11:22:32;25.20;73.10
13721;DHT22;6932;51.438;5.470;2022-10-16T11:28:11;25.30;72.60
13721;DHT22;6932;51.438;5.470;2022-10-16T11:30:47;25.40;71.70
13721;DHT22;6932;51.438;5.470;2022-10-16T11:36:21;25.40;71.30
13721;DHT22;6932;51.438;5.470;2022-10-16T11:39:17;25.40;70.40
13721;DHT22;6932;51.438;5.470;2022-10-16T11:42:01;25.40;71.30
13721;DHT22;6932;51.438;5.470;2022-10-16T11:47:57;25.60;71.20
13721;DHT22;6932;51.438;5.470;2022-10-16T11:50:53;25.80;71.40
13721;DHT22;6932;51.438;5.470;2022-10-16T11:53:46;25.90;69.90
13721;DHT22;6932;51.438;5.470;2022-10-16T11:56:19;25.90;70.40
13721;DHT22;6932;51.438;5.470;2022-10-16T11:59:02;26.00;69.90
13721;DHT22;6932;51.438;5.470;2022-10-16T12:05:03;26.00;70.50
13721;DHT22;6932;51.438;5.470;2022-10-16T12:07:36;26.10;70.10
13721;DHT22;6932;51.438;5.470;2022-10-16T12:10:28;26.00;70.50
13721;DHT22;6932;51.438;5.470;2022-10-16T12:12:57;26.00;70.90
13721;DHT22;6932;51.438;5.470;2022-10-16T12:17:54;26.10;70.90
13721;DHT22;6932;51.438;5.470;2022-10-16T12:20:26;26.00;70.70
13721;DHT22;6932;51.438;5.470;2022-10-16T12:23:00;26.00;70.50
13721;DHT22;6932;51.438;5.470;2022-10-16T12:28:05;26.00;70.00
13721;DHT22;6932;51.438;5.470;2022-10-16T12:30:43;26.00;70.00
13721;DHT22;6932;51.438;5.470;2022-10-16T12:35:49;25.90;69.70
13721;DHT22;6932;51.438;5.470;2022-10-16T12:38:21;25.90;69.80
13721;DHT22;6932;51.438;5.470;2022-10-16T12:41:01;25.80;70.30
13721;DHT22;6932;51.438;5.470;2022-10-16T12:48:37;25.60;70.50
13721;DHT22;6932;51.438;5.470;2022-10-16T12:53:59;25.50;70.20
13721;DHT22;6932;51.438;5.470;2022-10-16T12:56:46;25.50;70.60
13721;DHT22;6932;51.438;5.470;2022-10-16T13:02:30;25.50;70.40
13721;DHT22;6932;51.438;5.470;2022-10-16T13:05:38;25.40;70.40
13721;DHT22;6932;51.438;5.470;2022-10-16T13:08:39;25.50;70.10
13721;DHT22;6932;51.438;5.470;2022-10-16T13:14:41;25.40;70.00
13721;DHT22;6932;51.438;5.470;2022-10-16T13:20:48;25.40;69.80
13721;DHT22;6932;51.438;5.470;2022-10-16T13:29:32;25.40;70.00
13721;DHT22;6932;51.438;5.470;2022-10-16T13:32:00;25.40;70.10
13721;DHT22;6932;51.438;5.470;2022-10-16T13:34:41;25.40;70.50
13721;DHT22;6932;51.438;5.470;2022-10-16T13:37:20;25.40;70.50
13721;DHT22;6932;51.438;5.470;2022-10-16T13:39:48;25.40;70.40
13721;DHT22;6932;51.438;5.470;2022-10-16T13:42:24;25.40;70.30
13721;DHT22;6932;51.438;5.470;2022-10-16T13:44:54;25.30;70.30
13721;DHT22;6932;51.438;5.470;2022-10-16T13:50:05;25.30;70.70
13721;DHT22;6932;51.438;5.470;2022-10-16T13:52:36;25.30;70.70
13721;DHT22;6932;51.438;5.470;2022-10-16T13:55:04;25.20;70.50
13721;DHT22;6932;51.438;5.470;2022-10-16T13:57:36;25.20;70.50
13721;DHT22;6932;51.438;5.470;2022-10-16T14:00:03;25.20;70.60
13721;DHT22;6932;51.438;5.470;2022-10-16T14:02:42;25.10;70.40
13721;DHT22;6932;51.438;5.470;2022-10-16T14:05:08;25.10;70.50
13721;DHT22;6932;51.438;5.470;2022-10-16T14:07:36;25.10;70.80
13721;DHT22;6932;51.438;5.470;2022-10-16T14:10:06;25.00;70.90
13721;DHT22;6932;51.438;5.470;2022-10-16T14:12:43;25.00;71.00
13721;DHT22;6932;51.438;5.470;2022-10-16T14:15:17;25.00;71.50
13721;DHT22;6932;51.438;5.470;2022-10-16T14:17:45;24.90;71.60
13721;DHT22;6932;51.438;5.470;2022-10-16T14:20:16;24.90;71.60
13721;DHT22;6932;51.438;5.470;2022-10-16T14:22:42;24.90;71.80
13721;DHT22;6932;51.438;5.470;2022-10-16T14:25:27;24.90;71.80
13721;DHT22;6932;51.438;5.470;2022-10-16T14:30:36;24.80;71.90
13721;DHT22;6932;51.438;5.470;2022-10-16T14:33:20;24.70;71.80
13721;DHT22;6932;51.438;5.470;2022-10-16T14:38:31;24.60;72.30
13721;DHT22;6932;51.438;5.470;2022-10-16T14:40:59;24.60;72.20
13721;DHT22;6932;51.438;5.470;2022-10-16T14:43:39;24.60;72.60
13721;DHT22;6932;51.438;5.470;2022-10-16T14:46:13;24.50;72.70
13721;DHT22;6932;51.438;5.470;2022-10-16T14:48:43;24.50;72.90
13721;DHT22;6932;51.438;5.470;2022-10-16T14:51:16;24.50;73.20
13721;DHT22;6932;51.438;5.470;2022-10-16T14:53:44;24.50;73.40
13721;DHT22;6932;51.438;5.470;2022-10-16T14:56:22;24.40;73.50
13721;DHT22;6932;51.438;5.470;2022-10-16T14:58:52;24.40;74.30
13721;DHT22;6932;51.438;5.470;2022-10-16T15:01:19;24.40;74.00
13721;DHT22;6932;51.438;5.470;2022-10-16T15:03:45;24.40;74.10
13721;DHT22;6932;51.438;5.470;2022-10-16T15:06:12;24.40;73.90
13721;DHT22;6932;51.438;5.470;2022-10-16T15:08:42;24.40;73.90
13721;DHT22;6932;51.438;5.470;2022-10-16T15:11:16;24.40;73.90
13721;DHT22;6932;51.438;5.470;2022-10-16T15:13:43;24.40;74.10
13721;DHT22;6932;51.438;5.470;2022-10-16T15:16:13;24.30;74.10
13721;DHT22;6932;51.438;5.470;2022-10-16T15:18:42;24.30;74.50
13721;DHT22;6932;51.438;5.470;2022-10-16T15:21:13;24.30;74.40
13721;DHT22;6932;51.438;5.470;2022-10-16T15:23:56;24.30;74.70
13721;DHT22;6932;51.438;5.470;2022-10-16T15:26:26;24.30;74.80
13721;DHT22;6932;51.438;5.470;2022-10-16T15:28:53;24.20;75.00
13721;DHT22;6932;51.438;5.470;2022-10-16T15:31:19;24.20;75.10
13721;DHT22;6932;51.438;5.470;2022-10-16T15:33:49;24.20;75.30
13721;DHT22;6932;51.438;5.470;2022-10-16T15:36:28;24.10;75.50
13721;DHT22;6932;51.438;5.470;2022-10-16T15:38:55;24.10;75.70
13721;DHT22;6932;51.438;5.470;2022-10-16T15:41:21;24.10;75.80
13721;DHT22;6932;51.438;5.470;2022-10-16T15:43:51;24.10;75.90
13721;DHT22;6932;51.438;5.470;2022-10-16T15:46:19;24.00;76.00
13721;DHT22;6932;51.438;5.470;2022-10-16T15:48:47;24.00;76.10
13721;DHT22;6932;51.438;5.470;2022-10-16T15:51:14;24.00;76.30
13721;DHT22;6932;51.438;5.470;2022-10-16T15:53:39;24.00;76.50
13721;DHT22;6932;51.438;5.470;2022-10-16T15:56:07;24.00;77.40
13721;DHT22;6932;51.438;5.470;2022-10-16T15:58:34;23.90;76.90
13721;DHT22;6932;51.438;5.470;2022-10-16T16:01:01;23.90;77.70
13721;DHT22;6932;51.438;5.470;2022-10-16T16:03:29;23.90;77.30
13721;DHT22;6932;51.438;5.470;2022-10-16T16:05:56;23.90;77.40
13721;DHT22;6932;51.438;5.470;2022-10-16T16:08:22;23.80;77.40
13721;DHT22;6932;51.438;5.470;2022-10-16T16:11:01;23.80;77.40
13721;DHT22;6932;51.438;5.470;2022-10-16T16:13:27;23.80;77.60
13721;DHT22;6932;51.438;5.470;2022-10-16T16:15:54;23.80;77.60
13721;DHT22;6932;51.438;5.470;2022-10-16T16:18:20;23.80;77.70
13721;DHT22;6932;51.438;5.470;2022-10-16T16:20:46;23.70;77.70
13721;DHT22;6932;51.438;5.470;2022-10-16T16:23:11;23.70;78.00
13721;DHT22;6932;51.438;5.470;2022-10-16T16:25:37;23.70;78.00
13721;DHT22;6932;51.438;5.470;2022-10-16T16:28:03;23.70;78.20
13721;DHT22;6932;51.438;5.470;2022-10-16T16:30:29;23.60;78.30
13721;DHT22;6932;51.438;5.470;2022-10-16T16:32:54;23.60;78.50
13721;DHT22;6932;51.438;5.470;2022-10-16T16:35:20;23.60;78.60
13721;DHT22;6932;51.438;5.470;2022-10-16T16:37:47;23.60;78.70
13721;DHT22;6932;51.438;5.470;2022-10-16T16:40:13;23.60;78.90
13721;DHT22;6932;51.438;5.470;2022-10-16T16:42:39;23.50;78.80
13721;DHT22;6932;51.438;5.470;2022-10-16T16:45:05;23.50;79.00
13721;DHT22;6932;51.438;5.470;2022-10-16T16:47:31;23.50;79.00
13721;DHT22;6932;51.438;5.470;2022-10-16T16:49:57;23.50;79.20
13721;DHT22;6932;51.438;5.470;2022-10-16T16:52:23;23.40;79.30
13721;DHT22;6932;51.438;5.470;2022-10-16T16:54:48;23.40;79.30
13721;DHT22;6932;51.438;5.470;2022-10-16T16:57:18;23.40;79.30
13721;DHT22;6932;51.438;5.470;2022-10-16T16:59:45;23.40;79.40
13721;DHT22;6932;51.438;5.470;2022-10-16T17:02:11;23.40;79.60
13721;DHT22;6932;51.438;5.470;2022-10-16T17:04:37;23.30;79.60
13721;DHT22;6932;51.438;5.470;2022-10-16T17:07:02;23.30;79.60
13721;DHT22;6932;51.438;5.470;2022-10-16T17:09:28;23.30;79.60
13721;DHT22;6932;51.438;5.470;2022-10-16T17:11:54;23.30;79.70
13721;DHT22;6932;51.438;5.470;2022-10-16T17:14:19;23.30;79.70
13721;DHT22;6932;51.438;5.470;2022-10-16T17:16:45;23.30;79.80
13721;DHT22;6932;51.438;5.470;2022-10-16T17:19:15;23.30;79.80
13721;DHT22;6932;51.438;5.470;2022-10-16T17:21:43;23.20;79.90
13721;DHT22;6932;51.438;5.470;2022-10-16T17:24:09;23.20;80.10
13721;DHT22;6932;51.438;5.470;2022-10-16T17:26:36;23.20;80.10
13721;DHT22;6932;51.438;5.470;2022-10-16T17:29:03;23.20;80.20
13721;DHT22;6932;51.438;5.470;2022-10-16T17:31:35;23.20;80.40
13721;DHT22;6932;51.438;5.470;2022-10-16T17:34:03;23.20;81.10
13721;DHT22;6932;51.438;5.470;2022-10-16T17:36:33;23.10;80.50
13721;DHT22;6932;51.438;5.470;2022-10-16T17:39:06;23.10;80.60
13721;DHT22;6932;51.438;5.470;2022-10-16T17:41:33;23.10;80.70
13721;DHT22;6932;51.438;5.470;2022-10-16T17:44:00;23.10;80.70
13721;DHT22;6932;51.438;5.470;2022-10-16T17:46:26;23.10;80.80
13721;DHT22;6932;51.438;5.470;2022-10-16T17:48:53;23.10;80.90
13721;DHT22;6932;51.438;5.470;2022-10-16T17:51:22;23.00;81.00
13721;DHT22;6932;51.438;5.470;2022-10-16T17:53:51;23.00;81.20
13721;DHT22;6932;51.438;5.470;2022-10-16T17:56:19;23.00;81.40